Time;durP1;ratioP1;P1;durP2;ratioP2;P2;SDS_P1;SDS_P2;PMS_P1;PMS_P2;Temp;Humidity;BMP_temperature;BMP_pressure;BME280_temperature;BME280_humidity;BME280_pressure;Samples;Min_cycle;Max_cycle;Signal;HPM_P1;HPM_P2
2023/05/08 00:01:22;;;;;;;15.00;13.90;;;;;;;7.55;100.00;101854.44;4998965;28;20493;-81
2023/05/08 00:03:50;;;;;;;9.70;8.33;;;;;;;7.61;100.00;101888.56;4998360;28;20276;-82
2023/05/08 00:06:15;;;;;;;414.55;75.30;;;;;;;7.56;100.00;101885.41;4979210;28;20120;-82
2023/05/08 00:08:40;;;;;;;281.97;84.17;;;;;;;7.63;100.00;101898.22;5002249;28;20157;-82
2023/05/08 00:11:06;;;;;;;14.37;13.13;;;;;;;7.64;100.00;101891.94;5016974;28;20061;-82
2023/05/08 00:13:31;;;;;;;42.87;17.93;;;;;;;7.69;100.00;101882.66;4998320;28;20105;-82
2023/05/08 00:15:57;;;;;;;10.43;9.50;;;;;;;7.66;100.00;101879.38;5005844;23;20166;-75
2023/05/08 00:18:22;;;;;;;11.67;10.63;;;;;;;7.57;100.00;101863.16;4972121;28;20035;-75
2023/05/08 00:20:47;;;;;;;203.47;94.23;;;;;;;7.61;100.00;101867.28;4972068;28;20035;-75
2023/05/08 00:23:13;;;;;;;14.63;13.30;;;;;;;7.54;100.00;101866.06;4979617;28;20290;-75
2023/05/08 00:25:38;;;;;;;9.80;8.93;;;;;;;7.46;100.00;101854.28;4972728;28;20038;-76
2023/05/08 00:28:03;;;;;;;12.83;11.73;;;;;;;7.53;100.00;101882.94;4980459;28;20055;-75
2023/05/08 00:30:29;;;;;;;90.40;39.37;;;;;;;7.46;100.00;101876.41;4979907;28;20034;-75
2023/05/08 00:32:54;;;;;;;66.67;33.40;;;;;;;7.54;100.00;101887.31;4973078;23;20027;-76
2023/05/08 00:35:20;;;;;;;10.00;9.20;;;;;;;7.53;100.00;101885.59;4972249;28;20509;-76
2023/05/08 00:37:46;;;;;;;19.85;18.30;;;;;;;7.44;100.00;101891.59;4968108;28;20029;-75
2023/05/08 00:40:11;;;;;;;201.97;61.47;;;;;;;7.44;100.00;101896.91;4982274;28;20393;-76
2023/05/08 00:42:37;;;;;;;19.13;17.30;;;;;;;7.43;100.00;101911.19;4982215;28;20040;-76
2023/05/08 00:45:03;;;;;;;712.72;192.50;;;;;;;7.40;100.00;101912.25;4947737;28;20137;-76
2023/05/08 00:47:30;;;;;;;58.33;45.65;;;;;;;7.33;100.00;101904.88;4945963;28;20597;-75
2023/05/08 00:49:57;;;;;;;89.28;58.15;;;;;;;7.28;100.00;101922.91;4946840;28;20046;-75
2023/05/08 00:52:22;;;;;;;20.30;18.50;;;;;;;7.33;100.00;101945.56;4946595;28;20034;-75
2023/05/08 00:54:48;;;;;;;26.85;25.25;;;;;;;7.31;100.00;101950.13;4930146;28;20043;-75
2023/05/08 00:57:15;;;;;;;404.65;101.80;;;;;;;7.30;100.00;101952.88;4947981;28;20086;-75
2023/05/08 00:59:42;;;;;;;17.58;16.27;;;;;;;7.30;100.00;101943.09;4948067;28;20039;-76
2023/05/08 01:02:08;;;;;;;210.07;66.93;;;;;;;7.19;100.00;101949.22;4956121;28;20382;-75
2023/05/08 01:04:35;;;;;;;22.00;20.00;;;;;;;7.07;100.00;101931.50;4951197;28;20050;-76
2023/05/08 01:07:01;;;;;;;198.35;74.68;;;;;;;7.19;100.00;101951.03;4948899;28;20023;-75
2023/05/08 01:09:27;;;;;;;103.47;50.97;;;;;;;7.28;100.00;101950.34;4949343;28;20039;-76
2023/05/08 01:12:07;;;;;;;103.43;28.13;;;;;;;7.17;100.00;101924.56;4949170;28;20100;-76
2023/05/08 01:14:45;;;;;;;25.05;15.80;;;;;;;7.12;100.00;101936.50;4953238;28;20034;-75
2023/05/08 01:17:20;;;;;;;26.92;19.05;;;;;;;7.15;100.00;101960.16;4949254;28;20125;-75
2023/05/08 01:20:25;;;;;;;532.50;147.80;;;;;;;7.16;100.00;101961.84;4937738;28;20039;-76
2023/05/08 01:23:21;;;;;;;391.15;103.50;;;;;;;7.16;100.00;101965.38;4950720;28;20665;-76
2023/05/08 01:26:10;;;;;;;17.27;16.02;;;;;;;7.15;100.00;101958.34;4949362;28;20517;-75
2023/05/08 01:29:13;;;;;;;481.95;125.28;;;;;;;7.07;100.00;101942.13;4950337;28;20038;-77
2023/05/08 01:31:58;;;;;;;64.80;26.25;;;;;;;7.05;100.00;101957.31;4949066;28;20046;-75
2023/05/08 01:34:30;;;;;;;9.43;8.40;;;;;;;7.03;100.00;101958.41;4932270;28;20075;-76
2023/05/08 01:37:07;;;;;;;83.07;40.63;;;;;;;7.02;100.00;101965.50;4937131;28;20102;-76
2023/05/08 01:39:44;;;;;;;1973.25;279.40;;;;;;;7.00;100.00;101954.16;4948476;28;20039;-75
2023/05/08 01:42:21;;;;;;;530.60;120.68;;;;;;;6.96;100.00;101950.84;4950808;28;20067;-77
2023/05/08 01:44:53;;;;;;;12.60;11.45;;;;;;;6.97;100.00;101952.53;4953074;28;20058;-75
2023/05/08 01:47:22;;;;;;;203.48;43.50;;;;;;;7.07;100.00;101951.88;4951120;28;20113;-75
2023/05/08 01:49:53;;;;;;;294.20;54.42;;;;;;;6.96;100.00;101934.09;4949968;28;20066;-75
2023/05/08 01:52:27;;;;;;;76.82;16.35;;;;;;;6.93;100.00;101955.53;4949481;28;20112;-75
2023/05/08 01:55:07;;;;;;;99.32;29.60;;;;;;;6.92;100.00;101954.69;4954794;28;20041;-76
2023/05/08 01:57:37;;;;;;;9.73;8.90;;;;;;;6.89;100.00;101959.38;4949995;28;20034;-75
2023/05/08 02:00:03;;;;;;;925.00;156.65;;;;;;;6.82;100.00;101956.31;4950148;28;20372;-75
2023/05/08 02:02:35;;;;;;;456.35;86.15;;;;;;;6.80;100.00;101965.34;4949039;28;20035;-76
2023/05/08 02:05:04;;;;;;;14.50;10.67;;;;;;;6.83;100.00;101991.66;4949248;28;20046;-75
2023/05/08 02:07:34;;;;;;;21.77;15.57;;;;;;;6.83;100.00;101981.03;4955308;28;20290;-76
2023/05/08 02:10:02;;;;;;;126.95;28.98;;;;;;;6.76;100.00;101973.50;4950462;28;20412;-77
2023/05/08 02:12:29;;;;;;;1012.42;206.30;;;;;;;6.71;100.00;101972.13;4948924;28;20031;-75
2023/05/08 02:14:55;;;;;;;65.57;52.88;;;;;;;6.76;100.00;101996.53;4954574;28;20043;-76
2023/05/08 02:17:21;;;;;;;23.70;21.55;;;;;;;6.78;100.00;101999.94;4948027;28;20082;-75
2023/05/08 02:19:48;;;;;;;162.00;63.27;;;;;;;6.67;100.00;101987.44;4936814;28;20090;-76
2023/05/08 02:22:15;;;;;;;14.90;13.55;;;;;;;6.68;100.00;101983.81;4949446;28;20117;-75
2023/05/08 02:24:44;;;;;;;42.15;28.45;;;;;;;6.63;100.00;101987.75;4937977;28;20106;-75
2023/05/08 02:27:10;;;;;;;185.95;69.57;;;;;;;6.62;100.00;101986.88;4948381;28;20396;-77
2023/05/08 02:29:36;;;;;;;;;;;;;;;6.63;100.00;101970.03;4948152;28;20454;-75
2023/05/08 02:32:02;;;;;;;68.97;53.95;;;;;;;6.63;100.00;101959.41;4932464;28;20306;-76
2023/05/08 02:34:28;;;;;;;;;;;;;;;6.63;100.00;101959.41;4931849;28;20284;-76
2023/05/08 02:36:54;;;;;;;97.00;38.28;;;;;;;6.63;100.00;101943.47;4950343;28;20538;-76
2023/05/08 02:39:24;;;;;;;286.25;88.72;;;;;;;6.65;100.00;101941.56;4952943;28;20035;-77
2023/05/08 02:41:49;;;;;;;11.30;10.38;;;;;;;6.61;100.00;101939.25;4948280;28;20841;-76
2023/05/08 02:44:15;;;;;;;12.98;11.82;;;;;;;6.56;100.00;101936.91;4922065;28;20023;-76
2023/05/08 02:46:48;;;;;;;10.40;9.70;;;;;;;6.62;100.00;101952.38;4954297;28;20425;-75
2023/05/08 02:49:28;;;;;;;39.25;30.63;;;;;;;6.57;100.00;101949.22;4931983;28;20043;-75
2023/05/08 02:52:05;;;;;;;17.92;16.67;;;;;;;6.53;100.00;101945.94;4950361;28;20913;-75
2023/05/08 02:54:38;;;;;;;508.05;126.05;;;;;;;6.48;100.00;101952.50;4948297;28;20417;-76
2023/05/08 02:57:25;;;;;;;166.00;127.88;;;;;;;6.57;100.00;101965.13;4939173;28;20050;-75
2023/05/08 02:59:58;;;;;;;343.65;90.72;;;;;;;6.56;100.00;101952.84;4948278;28;20051;-75
2023/05/08 03:02:39;;;;;;;333.40;96.53;;;;;;;6.53;100.00;101953.03;4930582;28;20457;-75
2023/05/08 03:05:17;;;;;;;12.32;9.10;;;;;;;6.56;100.00;101947.53;4949864;28;20125;-76
2023/05/08 03:07:46;;;;;;;11.43;10.27;;;;;;;6.58;100.00;101952.69;4946987;28;20102;-77
2023/05/08 03:10:14;;;;;;;24.45;17.50;;;;;;;6.55;100.00;101933.41;4950461;28;20022;-76
2023/05/08 03:12:45;;;;;;;13.77;12.85;;;;;;;6.56;100.00;101928.94;4933100;28;20079;-77
2023/05/08 03:15:32;;;;;;;28.33;20.33;;;;;;;6.53;100.00;101937.09;4955419;28;20160;-75
2023/05/08 03:18:02;;;;;;;89.65;31.15;;;;;;;6.57;100.00;101929.78;4953154;28;20033;-76
2023/05/08 03:20:34;;;;;;;9.48;8.57;;;;;;;6.55;100.00;101908.66;4953710;28;20039;-75
2023/05/08 03:23:02;;;;;;;400.13;120.68;;;;;;;6.52;100.00;101907.06;4931130;28;20082;-76
2023/05/08 03:25:29;;;;;;;103.82;64.45;;;;;;;6.50;100.00;101887.75;4946955;28;20538;-75
2023/05/08 03:27:57;;;;;;;884.08;181.00;;;;;;;6.60;100.00;101889.75;4936311;28;20500;-77
2023/05/08 03:30:24;;;;;;;213.38;110.85;;;;;;;6.66;100.00;101879.56;4930889;28;20390;-75
2023/05/08 03:33:02;;;;;;;12.88;11.95;;;;;;;6.62;100.00;101856.84;4963606;28;20035;-76
2023/05/08 03:35:30;;;;;;;11.27;10.40;;;;;;;6.57;100.00;101858.16;4961518;28;20126;-75
2023/05/08 03:37:57;;;;;;;43.63;40.50;;;;;;;6.64;100.00;101854.94;4960883;28;20474;-76
2023/05/08 03:40:23;;;;;;;56.03;41.58;;;;;;;6.75;100.00;101864.78;4973465;28;20034;-76
2023/05/08 03:42:49;;;;;;;59.78;29.65;;;;;;;6.73;100.00;101853.44;4945349;28;20078;-76
2023/05/08 03:45:16;;;;;;;81.55;34.60;;;;;;;6.72;100.00;101844.63;4948330;28;20110;-75
2023/05/08 03:47:43;;;;;;;24.17;21.98;;;;;;;6.74;100.00;101839.19;4958278;28;20362;-76
2023/05/08 03:50:09;;;;;;;477.38;143.07;;;;;;;6.74;100.00;101834.75;4931772;28;20469;-77
2023/05/08 03:52:35;;;;;;;130.30;58.72;;;;;;;6.68;100.00;101835.19;4930174;28;20473;-76
2023/05/08 03:55:01;;;;;;;67.20;32.70;;;;;;;6.72;100.00;101852.59;4947284;28;20035;-76
2023/05/08 03:57:41;;;;;;;15.35;14.40;;;;;;;6.65;100.00;101840.72;4947478;28;20297;-75
2023/05/08 04:00:30;;;;;;;176.60;39.90;;;;;;;6.68;100.00;101851.13;4947371;28;20042;-76
2023/05/08 04:03:09;;;;;;;1050.60;172.48;;;;;;;6.63;100.00;101845.28;4947328;28;20414;-75
2023/05/08 04:05:40;;;;;;;660.05;131.32;;;;;;;6.67;100.00;101845.91;4946992;28;20061;-77
2023/05/08 04:08:33;;;;;;;412.65;68.28;;;;;;;6.71;100.00;101842.09;4931329;28;20513;-73
2023/05/08 04:11:16;;;;;;;10.75;9.82;;;;;;;6.75;100.00;101833.78;4948260;28;20522;-76
2023/05/08 04:13:47;;;;;;;84.70;26.73;;;;;;;6.75;100.00;101822.34;4936328;28;20051;-76
2023/05/08 04:16:24;;;;;;;1260.32;142.10;;;;;;;6.83;100.00;101819.13;4947078;28;20138;-77
2023/05/08 04:19:00;;;;;;;16.48;14.98;;;;;;;6.85;100.00;101802.09;4944472;28;20026;-76
2023/05/08 04:21:27;;;;;;;251.27;49.33;;;;;;;6.84;100.00;101787.16;4947279;28;20083;-76
2023/05/08 04:23:56;;;;;;;16.13;14.57;;;;;;;6.98;100.00;101775.53;4947039;28;20127;-75
2023/05/08 04:26:22;;;;;;;67.75;23.15;;;;;;;6.99;100.00;101753.31;4946050;28;20035;-75
2023/05/08 04:28:49;;;;;;;46.25;17.27;;;;;;;7.01;100.00;101735.44;4946679;28;20401;-75
2023/05/08 04:31:16;;;;;;;8.73;8.10;;;;;;;7.06;100.00;101732.44;4946232;28;20031;-76
2023/05/08 04:33:44;;;;;;;15.48;14.27;;;;;;;7.10;100.00;101728.63;4947592;28;20035;-75
2023/05/08 04:36:13;;;;;;;217.35;48.53;;;;;;;7.12;100.00;101694.81;4934629;28;20066;-76
2023/05/08 04:38:40;;;;;;;65.10;20.35;;;;;;;7.21;100.00;101690.59;4949776;28;20031;-77
2023/05/08 04:41:06;;;;;;;30.38;10.35;;;;;;;7.31;100.00;101686.28;4952032;28;20130;-76
2023/05/08 04:43:33;;;;;;;77.40;12.02;;;;;;;7.30;100.00;101655.34;4949561;28;20490;-75
2023/05/08 04:45:59;;;;;;;356.90;63.53;;;;;;;7.46;100.00;101639.06;4934655;28;20532;-75
2023/05/08 04:48:24;;;;;;;24.45;10.88;;;;;;;7.49;100.00;101602.50;4950101;28;20075;-77
2023/05/08 04:50:50;;;;;;;99.72;23.95;;;;;;;7.45;100.00;101558.53;4958524;28;20046;-75
2023/05/08 04:53:15;;;;;;;59.33;8.50;;;;;;;7.46;100.00;101564.69;4950434;28;20031;-75
2023/05/08 04:55:40;;;;;;;386.17;53.83;;;;;;;7.55;100.00;101558.63;4949612;28;20405;-75
2023/05/08 04:58:06;;;;;;;19.33;9.90;;;;;;;7.74;100.00;101552.69;4950672;28;20030;-75
2023/05/08 05:00:33;;;;;;;6.95;6.25;;;;;;;7.89;100.00;101530.19;4949328;28;20031;-77
2023/05/08 05:02:58;;;;;;;6.25;4.53;;;;;;;7.89;100.00;101503.59;4963032;28;20046;-75
2023/05/08 05:05:23;;;;;;;28.17;5.03;;;;;;;8.06;100.00;101482.72;4967670;28;20035;-75
2023/05/08 05:07:49;;;;;;;5.53;4.60;;;;;;;8.25;100.00;101454.44;4967284;28;20034;-76
2023/05/08 05:10:15;;;;;;;63.10;15.95;;;;;;;8.38;100.00;101379.75;4952310;28;20564;-75
2023/05/08 05:12:40;;;;;;;4.78;4.28;;;;;;;8.65;100.00;101357.06;4966228;28;20066;-75
2023/05/08 05:15:06;;;;;;;7.97;5.00;;;;;;;9.21;100.00;101321.00;4948848;28;20035;-75
2023/05/08 05:17:34;;;;;;;71.63;42.15;;;;;;;9.23;100.00;101127.22;4946579;28;20033;-76
2023/05/08 05:19:59;;;;;;;14.10;12.33;;;;;;;9.57;100.00;101068.84;4970600;28;20387;-76
2023/05/08 05:22:26;;;;;;;5.88;5.28;;;;;;;9.87;100.00;101021.53;4958028;28;20366;-76
2023/05/08 05:24:52;;;;;;;12.13;9.77;;;;;;;10.24;100.00;100916.50;4952480;28;20291;-75
2023/05/08 05:27:17;;;;;;;6.32;5.78;;;;;;;10.51;100.00;100822.94;4949083;28;20023;-76
2023/05/08 05:29:43;;;;;;;277.27;25.20;;;;;;;10.22;100.00;100683.69;4948733;28;20050;-75
2023/05/08 05:32:10;;;;;;;5.23;4.73;;;;;;;10.28;100.00;100805.78;4950066;28;20556;-75
2023/05/08 05:34:35;;;;;;;6.43;4.03;;;;;;;10.46;100.00;100843.09;4949010;28;20027;-75
2023/05/08 05:37:01;;;;;;;20.90;10.70;;;;;;;10.45;100.00;100663.41;4962274;28;20487;-75
2023/05/08 05:39:26;;;;;;;211.73;30.97;;;;;;;10.53;100.00;100588.69;4974044;28;20455;-75
2023/05/08 05:41:52;;;;;;;6.90;4.87;;;;;;;10.46;100.00;100678.44;4949346;28;20816;-75
2023/05/08 05:44:17;;;;;;;13.00;11.07;;;;;;;10.08;100.00;100621.94;4956308;28;20031;-75
2023/05/08 05:46:43;;;;;;;49.20;17.03;;;;;;;10.75;100.00;100695.84;4946749;28;20143;-76
2023/05/08 05:49:10;;;;;;;40.97;18.65;;;;;;;9.85;100.00;100563.03;4973609;28;20109;-76
2023/05/08 05:51:36;;;;;;;6.32;5.72;;;;;;;9.96;100.00;100699.75;4963291;28;20039;-75
2023/05/08 05:54:01;;;;;;;134.63;33.37;;;;;;;10.65;100.00;100698.69;4963321;28;20049;-75
2023/05/08 05:56:26;;;;;;;11.17;10.13;;;;;;;11.37;100.00;100677.47;4960385;28;20038;-76
2023/05/08 05:58:52;;;;;;;6.50;6.00;;;;;;;11.86;100.00;100742.56;4943322;28;20087;-75
2023/05/08 06:01:17;;;;;;;7.40;6.68;;;;;;;10.59;100.00;100436.88;4967252;28;20123;-75
2023/05/08 06:03:43;;;;;;;8.67;5.33;;;;;;;10.77;100.00;100566.50;4974956;28;20043;-75
2023/05/08 06:06:09;;;;;;;7.13;5.37;;;;;;;10.75;100.00;100562.34;4949355;28;20201;-75
2023/05/08 06:08:34;;;;;;;444.90;52.88;;;;;;;9.84;100.00;100379.22;4967564;28;20294;-76
2023/05/08 06:10:59;;;;;;;12.40;7.50;;;;;;;10.83;100.00;100773.31;4971712;28;20500;-77
2023/05/08 06:13:25;;;;;;;33.97;10.73;;;;;;;10.30;100.00;100447.09;4963496;28;20038;-75
2023/05/08 06:15:55;;;;;;;7.75;5.97;;;;;;;10.17;100.00;100558.78;4960097;28;20039;-76
2023/05/08 06:18:21;;;;;;;6.57;4.85;;;;;;;10.77;100.00;100747.28;4949752;28;20027;-74
2023/05/08 06:20:46;;;;;;;;;;;;;;;10.81;100.00;100462.84;4953264;28;20034;-75
2023/05/08 06:23:12;;;;;;;13.55;8.50;;;;;;;10.91;99.88;100513.38;4949679;28;19969;-75
2023/05/08 06:25:37;;;;;;;378.50;44.37;;;;;;;11.10;98.83;100472.13;4948308;28;20051;-75
2023/05/08 06:28:05;;;;;;;7.27;5.77;;;;;;;11.42;97.42;100465.78;4957261;28;20061;-75
2023/05/08 06:30:30;;;;;;;159.48;18.25;;;;;;;10.41;98.14;100357.81;4949650;28;20432;-75
2023/05/08 06:32:56;;;;;;;17.08;12.10;;;;;;;10.40;98.74;100457.59;4956723;28;20047;-75
2023/05/08 06:35:21;;;;;;;202.43;28.80;;;;;;;10.73;97.83;100466.38;5048651;23;20152;-70
2023/05/08 06:37:47;;;;;;;5.00;3.93;;;;;;;11.11;99.83;100748.97;5023624;28;20108;-69
2023/05/08 06:40:12;;;;;;;15.20;8.47;;;;;;;11.39;96.47;100557.84;5024110;28;20036;-69
2023/05/08 06:42:38;;;;;;;7.68;5.38;;;;;;;10.97;96.60;100508.19;5023177;28;20109;-72
2023/05/08 06:45:05;;;;;;;223.85;23.50;;;;;;;11.09;95.28;100433.88;5038358;28;20081;-73
2023/05/08 06:47:30;;;;;;;6.53;5.05;;;;;;;11.25;96.66;100625.38;5023367;28;20037;-68
2023/05/08 06:49:56;;;;;;;6.83;6.10;;;;;;;11.89;93.98;100494.28;5038650;28;20040;-68
2023/05/08 06:52:23;;;;;;;163.83;14.43;;;;;;;11.31;91.96;100228.34;5023117;28;20491;-68
2023/05/08 06:54:48;;;;;;;7.05;4.22;;;;;;;11.41;92.40;100384.75;5021526;28;20025;-69
2023/05/08 06:57:15;;;;;;;8.43;4.77;;;;;;;11.16;91.89;100287.88;5021261;28;20400;-68
2023/05/08 06:59:40;;;;;;;;;;;;;;;11.26;90.22;100212.84;5038969;28;20038;-69
2023/05/08 07:02:06;;;;;;;;;;;;;;;10.99;90.41;100192.84;5023023;28;19917;-71
2023/05/08 07:04:31;;;;;;;3.83;3.40;;;;;;;11.36;90.81;100347.06;5023063;28;20011;-70
2023/05/08 07:06:57;;;;;;;5.50;4.95;;;;;;;11.36;90.09;100301.63;5024023;28;20034;-68
2023/05/08 07:09:22;;;;;;;72.87;9.47;;;;;;;11.46;87.86;100086.69;5028593;28;20046;-68
2023/05/08 07:11:48;;;;;;;9.37;6.73;;;;;;;11.74;87.00;100183.97;5023062;28;20029;-73
2023/05/08 07:14:13;;;;;;;35.07;5.43;;;;;;;11.50;86.71;100102.19;5022540;28;20527;-69
2023/05/08 07:16:39;;;;;;;5.60;4.13;;;;;;;11.49;87.24;100177.22;5022931;28;20091;-68
2023/05/08 07:19:04;;;;;;;4.37;3.57;;;;;;;11.66;85.55;100081.59;5021839;28;20030;-74
2023/05/08 07:21:29;;;;;;;6.60;3.80;;;;;;;11.48;85.32;100047.25;5004609;28;20291;-72
2023/05/08 07:23:55;;;;;;;6.97;4.10;;;;;;;11.80;83.48;99955.91;5021040;28;20110;-69
2023/05/08 07:26:21;;;;;;;8.27;4.57;;;;;;;11.90;83.16;99986.91;5022987;28;20345;-68
2023/05/08 07:28:47;;;;;;;7.85;3.45;;;;;;;11.73;83.11;99976.41;5022768;28;20048;-68
2023/05/08 07:31:12;;;;;;;6.22;3.95;;;;;;;12.50;83.03;100190.94;5022572;28;20476;-69
2023/05/08 07:33:37;;;;;;;5.23;3.50;;;;;;;12.30;81.62;100008.72;5022288;28;20040;-69
2023/05/08 07:36:03;;;;;;;7.50;3.60;;;;;;;11.99;80.11;99783.28;5037761;28;20029;-68
2023/05/08 07:38:28;;;;;;;4.63;3.60;;;;;;;11.73;80.17;99765.16;5021126;28;20073;-69
2023/05/08 07:40:56;;;;;;;5.67;3.53;;;;;;;12.35;79.70;99932.16;5025080;28;20074;-72
2023/05/08 07:43:24;;;;;;;5.07;3.25;;;;;;;12.44;79.27;99914.94;5021703;28;20025;-68
2023/05/08 07:45:50;;;;;;;7.38;3.80;;;;;;;12.18;78.10;99708.69;5022518;28;20085;-72
2023/05/08 07:48:16;;;;;;;4.82;3.15;;;;;;;12.63;78.54;99910.72;5037713;28;20018;-70
2023/05/08 07:50:41;;;;;;;424.33;21.90;;;;;;;12.03;75.85;99442.16;5022508;28;20043;-68
2023/05/08 07:53:07;;;;;;;7.63;3.63;;;;;;;12.05;76.98;99663.97;5020835;28;20083;-68
2023/05/08 07:55:32;;;;;;;3.50;3.07;;;;;;;11.93;76.01;99494.38;5023957;28;20041;-72
2023/05/08 07:57:58;;;;;;;4.03;3.43;;;;;;;12.54;77.26;99895.03;5021932;28;20075;-68
2023/05/08 08:00:26;;;;;;;6.80;4.85;;;;;;;12.23;75.41;99580.47;5022111;28;20041;-68
2023/05/08 08:02:51;;;;;;;3.67;2.95;;;;;;;12.45;75.63;99702.44;5021729;28;20158;-68
2023/05/08 08:05:17;;;;;;;4.85;3.75;;;;;;;12.57;73.60;99534.00;5018553;28;20029;-68
2023/05/08 08:07:42;;;;;;;3.17;2.83;;;;;;;12.39;73.90;99541.81;5022899;28;20053;-70
2023/05/08 08:10:08;;;;;;;3.87;2.80;;;;;;;12.59;73.84;99620.28;5036770;28;20283;-68
2023/05/08 08:12:33;;;;;;;3.87;2.80;;;;;;;13.21;72.67;99649.63;5019438;28;20907;-69
2023/05/08 08:14:58;;;;;;;3.03;2.60;;;;;;;13.12;71.39;99461.41;5019552;28;20067;-71
2023/05/08 08:17:24;;;;;;;8.67;2.80;;;;;;;13.48;71.69;99658.50;5022477;28;20082;-74
2023/05/08 08:19:49;;;;;;;4.73;2.90;;;;;;;12.93;69.79;99280.97;5020567;28;20044;-73
2023/05/08 08:22:15;;;;;;;3.17;2.53;;;;;;;13.50;70.16;99507.09;5020095;28;20055;-71
2023/05/08 08:24:40;;;;;;;3.60;2.78;;;;;;;14.03;69.36;99615.25;5022019;28;20055;-69
2023/05/08 08:27:06;;;;;;;3.97;2.97;;;;;;;13.88;67.07;99272.94;5021552;28;20057;-68
2023/05/08 08:29:31;;;;;;;5.00;2.87;;;;;;;13.63;67.96;99318.53;5022160;28;20039;-72
2023/05/08 08:31:56;;;;;;;4.37;2.63;;;;;;;14.06;67.78;99461.84;5021950;28;20470;-68
2023/05/08 08:34:22;;;;;;;5.37;3.03;;;;;;;13.98;66.25;99282.31;5020127;28;20348;-69
2023/05/08 08:36:47;;;;;;;3.85;2.90;;;;;;;13.87;64.95;99088.84;5021822;28;20104;-71
2023/05/08 08:39:13;;;;;;;52.10;5.50;;;;;;;13.50;64.11;98869.00;5034904;28;20037;-69
2023/05/08 08:41:38;;;;;;;2.73;2.03;;;;;;;14.07;64.21;99146.81;5025145;28;20387;-70
2023/05/08 08:44:04;;;;;;;2.23;1.70;;;;;;;14.09;63.23;99057.03;5021608;28;20057;-74
2023/05/08 08:46:32;;;;;;;2.55;1.98;;;;;;;13.86;62.64;98958.47;5020593;28;20093;-72
2023/05/08 08:48:58;;;;;;;3.80;1.90;;;;;;;13.95;62.15;98891.88;5021802;28;20087;-71
2023/05/08 08:51:30;;;;;;;2.85;2.42;;;;;;;13.69;61.73;98804.59;5021818;28;20076;-71
2023/05/08 08:54:08;;;;;;;39.50;3.88;;;;;;;13.59;61.46;98775.69;5003276;28;20068;-72
2023/05/08 08:56:41;;;;;;;2.42;2.08;;;;;;;13.99;60.96;98897.63;5021708;28;20044;-74
2023/05/08 08:59:08;;;;;;;6.90;2.05;;;;;;;14.80;61.65;99317.03;5036810;28;20021;-69
2023/05/08 09:01:37;;;;;;;2.58;1.88;;;;;;;15.42;59.97;99293.47;5021924;28;20156;-69
2023/05/08 09:04:04;;;;;;;2.95;2.22;;;;;;;15.06;58.71;98963.81;5019988;28;20731;-70
2023/05/08 09:06:29;;;;;;;4.85;2.22;;;;;;;15.57;60.14;99381.81;5021757;28;20148;-74
2023/05/08 09:08:58;;;;;;;3.10;1.90;;;;;;;14.95;59.47;99095.25;5021401;28;20029;-69
2023/05/08 09:11:24;;;;;;;4.45;3.00;;;;;;;14.67;59.16;99001.88;5021486;28;20074;-69
2023/05/08 09:13:50;;;;;;;;;;;;;;;14.87;59.38;99098.28;5021644;28;20052;-71
2023/05/08 09:16:16;;;;;;;3.78;2.05;;;;;;;15.16;58.94;99075.06;5021827;28;19909;-69
2023/05/08 09:18:42;;;;;;;7.05;2.10;;;;;;;15.71;58.01;99205.72;5030731;28;20033;-72
2023/05/08 09:21:07;;;;;;;4.20;2.07;;;;;;;15.33;57.31;98891.53;5038813;28;20033;-69
2023/05/08 09:23:36;;;;;;;3.90;2.47;;;;;;;14.65;57.43;98654.03;5024517;28;20287;-72
2023/05/08 09:26:01;;;;;;;2.10;1.90;;;;;;;15.72;57.66;99263.03;5007252;28;20283;-71
2023/05/08 09:28:27;;;;;;;2.50;2.17;;;;;;;15.67;57.19;99171.44;5040319;28;20116;-69
2023/05/08 09:30:53;;;;;;;4.27;1.97;;;;;;;16.55;57.52;99522.44;5025414;28;20037;-69
2023/05/08 09:33:20;;;;;;;2.80;1.63;;;;;;;15.95;56.27;99061.19;5018120;28;20188;-72
2023/05/08 09:35:47;;;;;;;4.20;1.90;;;;;;;15.89;55.51;98906.06;5025026;28;20040;-72
2023/05/08 09:38:45;;;;;;;11.20;2.80;;;;;;;14.81;55.36;98510.09;5024644;28;20037;-70
2023/05/08 09:41:15;;;;;;;2.55;1.92;;;;;;;15.25;56.30;98918.81;4967762;28;20129;-69
2023/05/08 09:43:42;;;;;;;5.28;1.75;;;;;;;15.80;55.80;99095.84;4983328;28;20054;-69
2023/05/08 09:46:21;;;;;;;2.40;2.00;;;;;;;16.14;55.34;99152.56;4985776;28;20681;-69
2023/05/08 09:48:47;;;;;;;2.80;1.90;;;;;;;16.34;54.67;99103.66;4966576;28;20040;-70
2023/05/08 09:51:12;;;;;;;2.92;1.77;;;;;;;15.92;54.50;98894.00;4982896;28;20506;-70
2023/05/08 09:53:38;;;;;;;4.95;2.28;;;;;;;16.34;53.54;98910.63;4983219;28;20295;-70
2023/05/08 09:56:03;;;;;;;1.47;1.37;;;;;;;16.16;53.61;98887.44;4984340;28;20516;-69
2023/05/08 09:58:40;;;;;;;3.00;1.50;;;;;;;16.82;52.03;98913.78;4983377;28;20046;-73
2023/05/08 10:01:07;;;;;;;3.03;1.83;;;;;;;16.99;51.38;98882.19;4984350;28;20030;-69
2023/05/08 10:03:49;;;;;;;2.25;1.48;;;;;;;16.61;51.35;98667.47;4982870;28;20381;-71
2023/05/08 10:06:14;;;;;;;2.15;1.73;;;;;;;16.76;50.75;98673.03;4984578;28;20050;-74
2023/05/08 10:08:40;;;;;;;3.72;1.63;;;;;;;16.71;50.61;98632.56;4983511;28;20201;-69
2023/05/08 10:11:15;;;;;;;3.92;2.80;;;;;;;15.43;51.33;98251.81;4985600;28;20160;-69
2023/05/08 10:13:41;;;;;;;2.75;2.05;;;;;;;16.09;51.66;98711.81;4982480;28;20049;-72
2023/05/08 10:16:08;;;;;;;;;;;;;;;16.37;52.08;98875.09;4992660;28;20038;-69
2023/05/08 10:18:37;;;;;;;2.10;1.77;;;;;;;17.23;50.41;98979.88;5024672;28;20050;-73
2023/05/08 10:21:06;;;;;;;2.92;1.73;;;;;;;16.55;49.95;98574.19;5024236;28;20429;-71
2023/05/08 10:23:32;;;;;;;3.55;1.50;;;;;;;16.40;50.53;98637.63;5028088;28;20045;-69
2023/05/08 10:26:06;;;;;;;2.42;1.77;;;;;;;16.54;49.22;98446.00;5024798;28;20396;-68
2023/05/08 10:28:39;;;;;;;3.45;1.48;;;;;;;16.84;49.85;98771.50;5022856;28;20365;-69
2023/05/08 10:31:06;;;;;;;3.17;1.77;;;;;;;17.46;48.51;98727.91;5023782;28;20048;-69
2023/05/08 10:33:33;;;;;;;2.70;1.67;;;;;;;17.16;48.40;98534.34;5023504;28;20445;-69
2023/05/08 10:35:59;;;;;;;3.35;1.92;;;;;;;17.79;49.34;99003.22;5022515;28;20586;-74
2023/05/08 10:38:26;;;;;;;4.70;1.85;;;;;;;16.96;48.90;98588.09;5028956;28;20514;-72
2023/05/08 10:40:56;;;;;;;8.23;2.85;;;;;;;17.40;48.30;98672.31;5022260;28;20095;-72
2023/05/08 10:43:23;;;;;;;4.70;1.70;;;;;;;17.77;49.23;99010.75;5016966;28;20049;-69
2023/05/08 10:45:51;;;;;;;4.32;1.75;;;;;;;17.07;47.70;98395.72;5023892;28;20152;-73
2023/05/08 10:48:58;;;;;;;4.18;2.08;;;;;;;16.67;48.34;98324.34;5016800;28;20087;-69
2023/05/08 10:51:44;;;;;;;2.92;1.95;;;;;;;17.49;49.14;98888.47;5011975;28;20107;-71
2023/05/08 10:54:17;;;;;;;4.85;2.08;;;;;;;17.97;48.03;98854.41;5023191;28;20048;-71
2023/05/08 10:56:43;;;;;;;6.45;2.30;;;;;;;18.47;48.58;99207.16;5023766;28;20045;-74
2023/05/08 10:59:17;;;;;;;4.03;1.73;;;;;;;17.65;47.98;98635.78;5023583;28;20028;-69
2023/05/08 11:01:46;;;;;;;5.60;2.03;;;;;;;19.35;47.13;99268.44;5021823;28;20047;-75
2023/05/08 11:04:20;;;;;;;2.55;1.77;;;;;;;19.63;47.00;99323.38;5038042;28;20068;-69
2023/05/08 11:06:47;;;;;;;2.17;1.65;;;;;;;18.09;45.53;98312.31;5025109;28;20448;-69
2023/05/08 11:09:26;;;;;;;4.22;2.05;;;;;;;18.33;45.59;98500.84;5038452;28;20041;-70
2023/05/08 11:12:06;;;;;;;2.70;1.75;;;;;;;18.96;46.38;98953.00;5023970;28;20064;-71
2023/05/08 11:14:34;;;;;;;3.22;1.63;;;;;;;19.18;45.28;98797.84;5022249;28;20045;-69
2023/05/08 11:17:00;;;;;;;4.18;1.73;;;;;;;18.43;44.36;98159.69;5023062;28;20017;-69
2023/05/08 11:19:27;;;;;;;2.83;1.83;;;;;;;18.34;45.84;98648.34;5024310;28;20555;-69
2023/05/08 11:22:13;;;;;;;2.95;1.77;;;;;;;18.69;44.27;98336.03;5024159;28;20039;-70
2023/05/08 11:24:46;;;;;;;5.28;2.10;;;;;;;18.90;44.67;98559.31;5033879;28;20048;-74
2023/05/08 11:27:11;;;;;;;2.85;1.88;;;;;;;19.21;44.70;98731.59;5037371;28;20060;-72